sensor_id;sensor_type;location;lat;lon;timestamp;noise_LAeq;noise_LA_min;noise_LA_max;noise_LA01;noise_LA95
61095;Laerm;20450;49.074;9.158;2024-02-26T00:02:12;44.13;42.76;45.57;;
61095;Laerm;20450;49.074;9.158;2024-02-26T00:04:39;44.17;42.93;45.48;;
61095;Laerm;20450;49.074;9.158;2024-02-26T00:07:06;44.47;43.09;45.72;;
61095;Laerm;20450;49.074;9.158;2024-02-26T00:09:34;44.43;42.82;45.83;;
61095;Laerm;20450;49.074;9.158;2024-02-26T00:12:00;44.10;42.47;45.54;;
61095;Laerm;20450;49.074;9.158;2024-02-26T00:14:27;44.59;42.98;46.15;;
61095;Laerm;20450;49.074;9.158;2024-02-26T00:16:56;44.39;42.93;45.94;;
61095;Laerm;20450;49.074;9.158;2024-02-26T00:19:23;44.48;42.98;45.94;;
61095;Laerm;20450;49.074;9.158;2024-02-26T00:21:50;44.08;42.41;45.57;;
61095;Laerm;20450;49.074;9.158;2024-02-26T00:24:17;44.08;42.47;45.60;;
61095;Laerm;20450;49.074;9.158;2024-02-26T00:26:44;44.16;42.88;45.30;;
61095;Laerm;20450;49.074;9.158;2024-02-26T00:29:11;44.23;42.98;45.45;;
61095;Laerm;20450;49.074;9.158;2024-02-26T00:31:37;44.22;42.76;48.16;;
61095;Laerm;20450;49.074;9.158;2024-02-26T00:34:06;44.36;42.93;45.63;;
61095;Laerm;20450;49.074;9.158;2024-02-26T00:36:33;44.27;42.76;45.48;;
61095;Laerm;20450;49.074;9.158;2024-02-26T00:39:00;44.16;41.89;49.30;;
61095;Laerm;20450;49.074;9.158;2024-02-26T00:41:27;43.88;42.64;44.97;;
61095;Laerm;20450;49.074;9.158;2024-02-26T00:43:54;43.81;42.29;45.17;;
61095;Laerm;20450;49.074;9.158;2024-02-26T00:46:21;44.39;42.98;45.91;;
61095;Laerm;20450;49.074;9.158;2024-02-26T00:48:48;44.87;43.34;46.57;;
61095;Laerm;20450;49.074;9.158;2024-02-26T00:51:16;44.56;43.29;45.94;;
61095;Laerm;20450;49.074;9.158;2024-02-26T00:53:43;44.49;43.04;46.02;;
61095;Laerm;20450;49.074;9.158;2024-02-26T00:56:10;44.07;42.41;45.27;;
61095;Laerm;20450;49.074;9.158;2024-02-26T00:58:37;43.91;42.65;45.17;;
61095;Laerm;20450;49.074;9.158;2024-02-26T01:01:04;43.85;42.41;45.36;;
61095;Laerm;20450;49.074;9.158;2024-02-26T01:03:31;43.77;42.29;45.30;;
61095;Laerm;20450;49.074;9.158;2024-02-26T01:05:58;43.84;42.53;45.20;;
61095;Laerm;20450;49.074;9.158;2024-02-26T01:08:27;43.80;42.22;45.45;;
61095;Laerm;20450;49.074;9.158;2024-02-26T01:10:54;43.95;42.47;45.86;;
61095;Laerm;20450;49.074;9.158;2024-02-26T01:13:21;43.92;42.35;45.14;;
61095;Laerm;20450;49.074;9.158;2024-02-26T01:15:48;44.10;42.71;45.39;;
61095;Laerm;20450;49.074;9.158;2024-02-26T01:18:15;44.25;43.04;45.94;;
61095;Laerm;20450;49.074;9.158;2024-02-26T01:20:42;44.25;42.93;45.66;;
61095;Laerm;20450;49.074;9.158;2024-02-26T01:23:09;44.17;42.88;46.01;;
61095;Laerm;20450;49.074;9.158;2024-02-26T01:25:37;44.24;42.82;45.57;;
61095;Laerm;20450;49.074;9.158;2024-02-26T01:28:05;44.05;42.59;45.36;;
61095;Laerm;20450;49.074;9.158;2024-02-26T01:30:32;44.01;42.29;45.23;;
61095;Laerm;20450;49.074;9.158;2024-02-26T01:32:59;44.08;42.65;45.33;;
61095;Laerm;20450;49.074;9.158;2024-02-26T01:35:26;44.39;43.04;45.86;;
61095;Laerm;20450;49.074;9.158;2024-02-26T01:37:53;44.14;42.65;45.60;;
61095;Laerm;20450;49.074;9.158;2024-02-26T01:40:20;44.16;42.88;45.63;;
61095;Laerm;20450;49.074;9.158;2024-02-26T01:42:49;44.03;42.71;45.42;;
61095;Laerm;20450;49.074;9.158;2024-02-26T01:45:17;44.28;42.98;45.77;;
61095;Laerm;20450;49.074;9.158;2024-02-26T01:47:44;44.41;42.76;45.83;;
61095;Laerm;20450;49.074;9.158;2024-02-26T01:50:14;44.58;42.76;46.55;;
61095;Laerm;20450;49.074;9.158;2024-02-26T01:52:41;44.04;42.59;45.75;;
61095;Laerm;20450;49.074;9.158;2024-02-26T01:55:08;44.02;42.53;45.72;;
61095;Laerm;20450;49.074;9.158;2024-02-26T01:57:35;43.73;41.89;45.30;;
61095;Laerm;20450;49.074;9.158;2024-02-26T02:00:06;44.12;42.71;46.89;;
61095;Laerm;20450;49.074;9.158;2024-02-26T02:02:34;45.22;42.47;47.57;;
61095;Laerm;20450;49.074;9.158;2024-02-26T02:05:01;46.05;43.54;47.96;;
61095;Laerm;20450;49.074;9.158;2024-02-26T02:07:30;46.50;43.94;48.58;;
61095;Laerm;20450;49.074;9.158;2024-02-26T02:09:58;46.36;44.47;48.51;;
61095;Laerm;20450;49.074;9.158;2024-02-26T02:12:25;46.02;44.07;48.78;;
61095;Laerm;20450;49.074;9.158;2024-02-26T02:14:52;46.24;43.86;49.80;;
61095;Laerm;20450;49.074;9.158;2024-02-26T02:17:21;45.68;43.63;55.36;;
61095;Laerm;20450;49.074;9.158;2024-02-26T02:19:48;46.31;43.90;49.66;;
61095;Laerm;20450;49.074;9.158;2024-02-26T02:22:17;46.19;44.15;48.43;;
61095;Laerm;20450;49.074;9.158;2024-02-26T02:24:44;45.22;43.39;47.18;;
61095;Laerm;20450;49.074;9.158;2024-02-26T02:27:11;45.68;43.77;47.74;;
61095;Laerm;20450;49.074;9.158;2024-02-26T02:29:38;46.42;44.43;48.34;;
61095;Laerm;20450;49.074;9.158;2024-02-26T02:32:06;46.39;43.94;48.84;;
61095;Laerm;20450;49.074;9.158;2024-02-26T02:34:33;45.15;43.72;47.28;;
61095;Laerm;20450;49.074;9.158;2024-02-26T02:37:01;45.44;43.86;47.38;;
61095;Laerm;20450;49.074;9.158;2024-02-26T02:39:29;45.96;44.15;48.13;;
61095;Laerm;20450;49.074;9.158;2024-02-26T02:41:56;45.63;43.90;48.02;;
61095;Laerm;20450;49.074;9.158;2024-02-26T02:44:23;44.93;43.44;46.73;;
61095;Laerm;20450;49.074;9.158;2024-02-26T02:46:50;45.20;43.58;46.69;;
61095;Laerm;20450;49.074;9.158;2024-02-26T02:49:17;45.49;43.90;47.42;;
61095;Laerm;20450;49.074;9.158;2024-02-26T02:51:44;45.86;44.23;47.57;;
61095;Laerm;20450;49.074;9.158;2024-02-26T02:54:11;45.51;43.86;47.50;;
61095;Laerm;20450;49.074;9.158;2024-02-26T02:56:40;45.31;43.86;47.06;;
61095;Laerm;20450;49.074;9.158;2024-02-26T02:59:07;45.37;43.76;47.44;;
61095;Laerm;20450;49.074;9.158;2024-02-26T03:01:34;45.51;44.07;47.36;;
61095;Laerm;20450;49.074;9.158;2024-02-26T03:04:01;45.37;43.81;47.16;;
61095;Laerm;20450;49.074;9.158;2024-02-26T03:06:28;45.37;43.68;48.21;;
61095;Laerm;20450;49.074;9.158;2024-02-26T03:08:55;45.19;43.72;47.06;;
61095;Laerm;20450;49.074;9.158;2024-02-26T03:11:22;45.42;44.03;47.24;;
61095;Laerm;20450;49.074;9.158;2024-02-26T03:13:50;45.55;43.94;47.36;;
61095;Laerm;20450;49.074;9.158;2024-02-26T03:16:18;45.53;44.15;47.12;;
61095;Laerm;20450;49.074;9.158;2024-02-26T03:18:45;45.34;43.58;47.32;;
61095;Laerm;20450;49.074;9.158;2024-02-26T03:21:12;45.33;43.72;47.38;;
61095;Laerm;20450;49.074;9.158;2024-02-26T03:23:38;44.84;43.49;47.16;;
61095;Laerm;20450;49.074;9.158;2024-02-26T03:26:06;44.93;43.19;47.06;;
61095;Laerm;20450;49.074;9.158;2024-02-26T03:28:32;44.98;43.39;46.95;;
61095;Laerm;20450;49.074;9.158;2024-02-26T03:31:01;44.93;43.09;46.69;;
61095;Laerm;20450;49.074;9.158;2024-02-26T03:33:28;44.39;42.41;45.80;;
61095;Laerm;20450;49.074;9.158;2024-02-26T03:35:55;45.10;43.44;49.59;;
61095;Laerm;20450;49.074;9.158;2024-02-26T03:38:22;45.14;43.44;51.51;;
61095;Laerm;20450;49.074;9.158;2024-02-26T03:40:49;44.78;43.37;46.43;;
61095;Laerm;20450;49.074;9.158;2024-02-26T03:43:16;44.64;43.29;50.09;;
61095;Laerm;20450;49.074;9.158;2024-02-26T03:45:43;45.20;43.58;49.23;;
61095;Laerm;20450;49.074;9.158;2024-02-26T03:48:12;44.93;43.34;48.98;;
61095;Laerm;20450;49.074;9.158;2024-02-26T03:50:39;45.27;43.58;46.91;;
61095;Laerm;20450;49.074;9.158;2024-02-26T03:53:06;45.02;43.72;46.52;;
61095;Laerm;20450;49.074;9.158;2024-02-26T03:55:33;44.97;43.63;46.62;;
61095;Laerm;20450;49.074;9.158;2024-02-26T03:58:00;44.94;43.39;46.45;;
61095;Laerm;20450;49.074;9.158;2024-02-26T04:00:27;44.64;43.29;48.29;;
61095;Laerm;20450;49.074;9.158;2024-02-26T04:02:54;44.77;43.44;46.66;;
61095;Laerm;20450;49.074;9.158;2024-02-26T04:05:22;44.83;43.44;46.57;;
61095;Laerm;20450;49.074;9.158;2024-02-26T04:07:49;45.15;43.63;47.32;;
61095;Laerm;20450;49.074;9.158;2024-02-26T04:10:17;45.40;43.68;47.67;;
61095;Laerm;20450;49.074;9.158;2024-02-26T04:12:44;44.84;43.39;46.66;;
61095;Laerm;20450;49.074;9.158;2024-02-26T04:15:11;44.67;43.14;48.44;;
61095;Laerm;20450;49.074;9.158;2024-02-26T04:17:39;44.87;43.19;50.39;;
61095;Laerm;20450;49.074;9.158;2024-02-26T04:20:08;44.97;43.29;48.05;;
61095;Laerm;20450;49.074;9.158;2024-02-26T04:22:36;44.94;43.34;46.55;;
61095;Laerm;20450;49.074;9.158;2024-02-26T04:25:04;44.63;43.09;46.05;;
61095;Laerm;20450;49.074;9.158;2024-02-26T04:27:31;44.76;43.24;46.45;;
61095;Laerm;20450;49.074;9.158;2024-02-26T04:29:57;45.30;43.54;47.50;;
61095;Laerm;20450;49.074;9.158;2024-02-26T04:32:24;45.49;43.63;49.06;;
61095;Laerm;20450;49.074;9.158;2024-02-26T04:34:51;45.25;43.09;47.42;;
61095;Laerm;20450;49.074;9.158;2024-02-26T04:37:18;45.23;43.44;50.15;;
61095;Laerm;20450;49.074;9.158;2024-02-26T04:39:47;45.02;43.09;50.71;;
61095;Laerm;20450;49.074;9.158;2024-02-26T04:42:17;44.60;42.93;46.25;;
61095;Laerm;20450;49.074;9.158;2024-02-26T04:44:44;45.03;43.54;49.39;;
61095;Laerm;20450;49.074;9.158;2024-02-26T04:47:11;44.75;43.34;46.48;;
61095;Laerm;20450;49.074;9.158;2024-02-26T04:49:38;44.83;43.14;47.48;;
61095;Laerm;20450;49.074;9.158;2024-02-26T04:52:05;44.84;43.34;47.77;;
61095;Laerm;20450;49.074;9.158;2024-02-26T04:54:32;45.14;43.39;48.99;;
61095;Laerm;20450;49.074;9.158;2024-02-26T04:57:00;44.92;43.29;48.02;;
61095;Laerm;20450;49.074;9.158;2024-02-26T04:59:27;44.91;43.19;48.92;;
61095;Laerm;20450;49.074;9.158;2024-02-26T05:01:54;45.10;43.34;50.63;;
61095;Laerm;20450;49.074;9.158;2024-02-26T05:04:21;45.19;43.58;51.80;;
61095;Laerm;20450;49.074;9.158;2024-02-26T05:06:48;45.57;43.54;49.74;;
61095;Laerm;20450;49.074;9.158;2024-02-26T05:09:15;45.22;43.29;51.16;;
61095;Laerm;20450;49.074;9.158;2024-02-26T05:11:42;45.62;43.81;51.25;;
61095;Laerm;20450;49.074;9.158;2024-02-26T05:14:11;45.51;43.68;51.44;;
61095;Laerm;20450;49.074;9.158;2024-02-26T05:16:38;45.50;43.44;50.75;;
61095;Laerm;20450;49.074;9.158;2024-02-26T05:19:05;45.48;43.39;50.77;;
61095;Laerm;20450;49.074;9.158;2024-02-26T05:21:32;45.29;43.63;51.55;;
61095;Laerm;20450;49.074;9.158;2024-02-26T05:23:59;45.04;43.68;51.18;;
61095;Laerm;20450;49.074;9.158;2024-02-26T05:26:26;45.34;43.72;51.71;;
61095;Laerm;20450;49.074;9.158;2024-02-26T05:28:54;45.30;43.34;53.19;;
61095;Laerm;20450;49.074;9.158;2024-02-26T05:31:23;45.22;42.88;55.88;;
61095;Laerm;20450;49.074;9.158;2024-02-26T05:33:49;45.65;43.34;54.50;;
61095;Laerm;20450;49.074;9.158;2024-02-26T05:36:20;46.94;43.39;58.80;;
61095;Laerm;20450;49.074;9.158;2024-02-26T05:38:47;45.45;43.19;57.90;;
61095;Laerm;20450;49.074;9.158;2024-02-26T05:41:15;44.70;42.76;52.17;;
61095;Laerm;20450;49.074;9.158;2024-02-26T05:43:42;44.96;43.49;50.90;;
61095;Laerm;20450;49.074;9.158;2024-02-26T05:46:09;44.94;43.54;50.21;;
61095;Laerm;20450;49.074;9.158;2024-02-26T05:48:37;44.80;43.29;47.91;;
61095;Laerm;20450;49.074;9.158;2024-02-26T05:51:07;44.96;43.24;49.52;;
61095;Laerm;20450;49.074;9.158;2024-02-26T05:53:34;44.66;43.09;47.72;;
61095;Laerm;20450;49.074;9.158;2024-02-26T05:56:01;45.01;43.34;47.55;;
61095;Laerm;20450;49.074;9.158;2024-02-26T05:58:27;45.22;43.58;55.95;;
61095;Laerm;20450;49.074;9.158;2024-02-26T06:00:54;44.99;43.49;50.34;;
61095;Laerm;20450;49.074;9.158;2024-02-26T06:03:21;44.76;43.39;47.30;;
61095;Laerm;20450;49.074;9.158;2024-02-26T06:05:50;44.91;43.24;49.10;;
61095;Laerm;20450;49.074;9.158;2024-02-26T06:08:17;44.83;42.90;53.27;;
61095;Laerm;20450;49.074;9.158;2024-02-26T06:10:44;44.99;43.44;59.11;;
61095;Laerm;20450;49.074;9.158;2024-02-26T06:13:11;45.12;43.14;54.32;;
61095;Laerm;20450;49.074;9.158;2024-02-26T06:15:38;44.80;43.19;48.12;;
61095;Laerm;20450;49.074;9.158;2024-02-26T06:18:05;45.07;43.14;52.44;;
61095;Laerm;20450;49.074;9.158;2024-02-26T06:20:32;44.99;42.76;61.02;;
61095;Laerm;20450;49.074;9.158;2024-02-26T06:23:00;45.91;43.04;61.75;;
61095;Laerm;20450;49.074;9.158;2024-02-26T06:25:27;44.99;42.88;52.27;;
61095;Laerm;20450;49.074;9.158;2024-02-26T06:27:54;45.48;42.98;57.65;;
61095;Laerm;20450;49.074;9.158;2024-02-26T06:30:21;46.10;43.09;60.95;;
61095;Laerm;20450;49.074;9.158;2024-02-26T06:32:48;46.04;43.29;68.11;;
61095;Laerm;20450;49.074;9.158;2024-02-26T06:35:15;46.67;43.24;62.45;;
61095;Laerm;20450;49.074;9.158;2024-02-26T06:37:42;47.18;43.63;57.28;;
61095;Laerm;20450;49.074;9.158;2024-02-26T06:40:11;45.84;43.19;52.93;;
61095;Laerm;20450;49.074;9.158;2024-02-26T06:42:38;46.29;43.14;54.78;;
61095;Laerm;20450;49.074;9.158;2024-02-26T06:45:06;45.43;43.19;54.45;;
61095;Laerm;20450;49.074;9.158;2024-02-26T06:47:33;45.37;42.71;67.14;;
61095;Laerm;20450;49.074;9.158;2024-02-26T06:50:00;45.86;43.14;62.51;;
61095;Laerm;20450;49.074;9.158;2024-02-26T06:52:27;45.70;43.24;57.65;;
61095;Laerm;20450;49.074;9.158;2024-02-26T06:54:54;45.88;43.09;55.15;;
61095;Laerm;20450;49.074;9.158;2024-02-26T06:57:22;46.29;43.04;64.64;;
61095;Laerm;20450;49.074;9.158;2024-02-26T06:59:49;44.91;43.09;57.06;;
61095;Laerm;20450;49.074;9.158;2024-02-26T07:02:17;44.80;42.59;65.97;;
61095;Laerm;20450;49.074;9.158;2024-02-26T07:04:44;45.01;42.82;59.46;;
61095;Laerm;20450;49.074;9.158;2024-02-26T07:07:11;45.54;42.59;68.95;;
61095;Laerm;20450;49.074;9.158;2024-02-26T07:09:42;44.21;42.35;59.65;;
61095;Laerm;20450;49.074;9.158;2024-02-26T07:12:09;44.05;42.53;48.23;;
61095;Laerm;20450;49.074;9.158;2024-02-26T07:14:37;44.14;42.65;49.14;;
61095;Laerm;20450;49.074;9.158;2024-02-26T07:17:04;44.24;42.47;49.89;;
61095;Laerm;20450;49.074;9.158;2024-02-26T07:19:31;43.94;42.53;46.40;;
61095;Laerm;20450;49.074;9.158;2024-02-26T07:21:58;44.18;42.35;58.89;;
61095;Laerm;20450;49.074;9.158;2024-02-26T07:24:25;43.86;42.35;47.40;;
61095;Laerm;20450;49.074;9.158;2024-02-26T07:26:53;44.14;42.65;47.30;;
61095;Laerm;20450;49.074;9.158;2024-02-26T07:29:20;44.15;42.35;52.26;;
61095;Laerm;20450;49.074;9.158;2024-02-26T07:31:48;44.27;42.53;48.05;;
61095;Laerm;20450;49.074;9.158;2024-02-26T07:34:15;44.06;42.69;47.41;;
61095;Laerm;20450;49.074;9.158;2024-02-26T07:36:43;44.11;42.41;55.72;;
61095;Laerm;20450;49.074;9.158;2024-02-26T07:39:10;44.50;42.09;60.49;;
61095;Laerm;20450;49.074;9.158;2024-02-26T07:41:37;44.02;42.16;50.19;;
61095;Laerm;20450;49.074;9.158;2024-02-26T07:44:04;44.15;42.88;46.95;;
61095;Laerm;20450;49.074;9.158;2024-02-26T07:46:31;44.12;42.65;47.42;;
61095;Laerm;20450;49.074;9.158;2024-02-26T07:49:00;43.94;42.59;47.72;;
61095;Laerm;20450;49.074;9.158;2024-02-26T07:51:27;44.17;42.53;48.88;;
61095;Laerm;20450;49.074;9.158;2024-02-26T07:53:53;44.20;42.76;47.91;;
61095;Laerm;20450;49.074;9.158;2024-02-26T07:56:20;44.18;42.76;49.03;;
61095;Laerm;20450;49.074;9.158;2024-02-26T07:58:47;44.26;42.82;53.51;;
61095;Laerm;20450;49.074;9.158;2024-02-26T08:01:14;44.36;42.59;49.52;;
61095;Laerm;20450;49.074;9.158;2024-02-26T08:03:41;44.25;42.88;47.10;;
61095;Laerm;20450;49.074;9.158;2024-02-26T08:06:10;43.98;42.41;49.47;;
61095;Laerm;20450;49.074;9.158;2024-02-26T08:08:38;44.08;42.53;45.77;;
61095;Laerm;20450;49.074;9.158;2024-02-26T08:11:05;44.26;42.65;47.48;;
61095;Laerm;20450;49.074;9.158;2024-02-26T08:13:32;44.15;42.59;48.90;;
61095;Laerm;20450;49.074;9.158;2024-02-26T08:15:58;44.20;42.82;47.61;;
61095;Laerm;20450;49.074;9.158;2024-02-26T08:18:25;44.31;42.82;49.39;;
61095;Laerm;20450;49.074;9.158;2024-02-26T08:20:53;44.58;42.59;55.31;;
61095;Laerm;20450;49.074;9.158;2024-02-26T08:23:21;44.23;42.65;48.39;;
61095;Laerm;20450;49.074;9.158;2024-02-26T08:25:48;44.29;42.76;46.45;;
61095;Laerm;20450;49.074;9.158;2024-02-26T08:28:15;44.32;42.93;49.32;;
61095;Laerm;20450;49.074;9.158;2024-02-26T08:30:42;44.30;42.74;52.91;;
61095;Laerm;20450;49.074;9.158;2024-02-26T08:33:08;44.51;43.04;50.51;;
61095;Laerm;20450;49.074;9.158;2024-02-26T08:35:36;44.73;42.53;50.32;;
61095;Laerm;20450;49.074;9.158;2024-02-26T08:38:03;44.75;43.09;54.59;;
61095;Laerm;20450;49.074;9.158;2024-02-26T08:40:31;44.41;43.04;57.40;;
61095;Laerm;20450;49.074;9.158;2024-02-26T08:42:58;44.69;42.98;51.44;;
61095;Laerm;20450;49.074;9.158;2024-02-26T08:45:26;44.67;42.88;51.00;;
61095;Laerm;20450;49.074;9.158;2024-02-26T08:47:55;44.51;43.04;56.87;;
61095;Laerm;20450;49.074;9.158;2024-02-26T08:50:22;44.68;42.59;53.29;;
61095;Laerm;20450;49.074;9.158;2024-02-26T08:52:49;44.35;42.71;48.84;;
61095;Laerm;20450;49.074;9.158;2024-02-26T08:55:17;44.20;42.76;56.12;;
61095;Laerm;20450;49.074;9.158;2024-02-26T08:57:45;44.24;42.71;52.45;;
61095;Laerm;20450;49.074;9.158;2024-02-26T09:00:13;44.13;42.53;50.90;;
61095;Laerm;20450;49.074;9.158;2024-02-26T09:02:40;44.29;42.76;49.11;;
61095;Laerm;20450;49.074;9.158;2024-02-26T09:05:08;44.56;42.71;49.45;;
61095;Laerm;20450;49.074;9.158;2024-02-26T09:07:35;44.04;42.65;50.08;;
61095;Laerm;20450;49.074;9.158;2024-02-26T09:10:04;44.10;42.59;46.13;;
61095;Laerm;20450;49.074;9.158;2024-02-26T09:12:31;44.06;42.53;48.57;;
61095;Laerm;20450;49.074;9.158;2024-02-26T09:14:59;44.39;42.53;48.88;;
61095;Laerm;20450;49.074;9.158;2024-02-26T09:17:26;44.27;42.71;46.62;;
61095;Laerm;20450;49.074;9.158;2024-02-26T09:19:54;44.22;42.53;49.10;;
61095;Laerm;20450;49.074;9.158;2024-02-26T09:22:22;44.48;42.71;53.29;;
61095;Laerm;20450;49.074;9.158;2024-02-26T09:24:49;44.31;42.88;53.75;;
61095;Laerm;20450;49.074;9.158;2024-02-26T09:27:16;44.11;42.35;47.77;;
61095;Laerm;20450;49.074;9.158;2024-02-26T09:29:43;44.55;42.90;51.25;;
61095;Laerm;20450;49.074;9.158;2024-02-26T09:32:12;44.39;42.35;50.90;;
61095;Laerm;20450;49.074;9.158;2024-02-26T09:34:40;44.80;42.93;52.84;;
61095;Laerm;20450;49.074;9.158;2024-02-26T09:37:07;44.47;42.93;47.00;;
61095;Laerm;20450;49.074;9.158;2024-02-26T09:39:47;44.47;42.88;48.85;;
61095;Laerm;20450;49.074;9.158;2024-02-26T09:42:18;44.58;43.04;46.45;;
61095;Laerm;20450;49.074;9.158;2024-02-26T09:44:49;44.80;43.29;48.08;;
61095;Laerm;20450;49.074;9.158;2024-02-26T09:47:22;44.56;43.14;48.73;;
61095;Laerm;20450;49.074;9.158;2024-02-26T09:49:53;44.45;42.53;50.46;;
61095;Laerm;20450;49.074;9.158;2024-02-26T09:52:20;44.74;42.98;55.07;;
61095;Laerm;20450;49.074;9.158;2024-02-26T09:54:49;44.49;42.53;47.22;;
61095;Laerm;20450;49.074;9.158;2024-02-26T09:57:16;44.79;42.35;58.12;;
61095;Laerm;20450;49.074;9.158;2024-02-26T09:59:44;44.64;42.88;47.93;;
61095;Laerm;20450;49.074;9.158;2024-02-26T10:02:15;44.41;43.04;46.93;;
61095;Laerm;20450;49.074;9.158;2024-02-26T10:04:43;44.81;43.24;48.10;;
61095;Laerm;20450;49.074;9.158;2024-02-26T10:07:17;44.45;42.88;48.52;;
61095;Laerm;20450;49.074;9.158;2024-02-26T10:09:44;44.89;43.14;47.93;;
61095;Laerm;20450;49.074;9.158;2024-02-26T10:12:13;44.78;43.09;49.65;;
61095;Laerm;20450;49.074;9.158;2024-02-26T10:14:43;44.53;43.04;48.85;;
61095;Laerm;20450;49.074;9.158;2024-02-26T10:17:11;44.76;43.04;49.39;;
61095;Laerm;20450;49.074;9.158;2024-02-26T10:19:38;44.60;43.04;47.40;;
61095;Laerm;20450;49.074;9.158;2024-02-26T10:22:07;44.71;43.09;60.42;;
61095;Laerm;20450;49.074;9.158;2024-02-26T10:24:35;44.38;42.65;46.73;;
61095;Laerm;20450;49.074;9.158;2024-02-26T10:27:03;44.79;43.09;50.85;;
61095;Laerm;20450;49.074;9.158;2024-02-26T10:29:31;44.60;42.71;46.48;;
61095;Laerm;20450;49.074;9.158;2024-02-26T10:31:58;44.91;43.24;50.60;;
61095;Laerm;20450;49.074;9.158;2024-02-26T10:34:26;44.87;43.19;49.67;;
61095;Laerm;20450;49.074;9.158;2024-02-26T10:36:55;48.68;43.63;59.17;;
61095;Laerm;20450;49.074;9.158;2024-02-26T10:39:23;46.77;43.09;55.60;;
61095;Laerm;20450;49.074;9.158;2024-02-26T10:41:50;44.85;43.34;51.51;;
61095;Laerm;20450;49.074;9.158;2024-02-26T10:44:18;45.33;43.54;48.66;;
61095;Laerm;20450;49.074;9.158;2024-02-26T10:46:47;45.44;43.72;51.94;;
61095;Laerm;20450;49.074;9.158;2024-02-26T10:49:15;45.32;43.86;49.47;;
61095;Laerm;20450;49.074;9.158;2024-02-26T10:51:45;45.26;43.49;57.51;;
61095;Laerm;20450;49.074;9.158;2024-02-26T10:54:16;45.39;43.24;48.91;;
61095;Laerm;20450;49.074;9.158;2024-02-26T10:56:46;45.43;43.77;49.97;;
61095;Laerm;20450;49.074;9.158;2024-02-26T10:59:17;45.13;43.34;50.27;;
61095;Laerm;20450;49.074;9.158;2024-02-26T11:01:45;45.40;43.58;60.94;;
61095;Laerm;20450;49.074;9.158;2024-02-26T11:04:13;45.09;43.34;52.13;;
61095;Laerm;20450;49.074;9.158;2024-02-26T11:06:42;45.82;43.58;53.72;;
61095;Laerm;20450;49.074;9.158;2024-02-26T11:09:12;45.16;43.29;52.68;;
61095;Laerm;20450;49.074;9.158;2024-02-26T11:11:41;45.39;43.58;49.86;;
61095;Laerm;20450;49.074;9.158;2024-02-26T11:14:11;47.05;43.58;58.78;;
61095;Laerm;20450;49.074;9.158;2024-02-26T11:16:39;46.21;44.31;53.40;;
61095;Laerm;20450;49.074;9.158;2024-02-26T11:19:08;46.23;44.31;49.55;;
61095;Laerm;20450;49.074;9.158;2024-02-26T11:21:36;46.62;44.54;54.46;;
61095;Laerm;20450;49.074;9.158;2024-02-26T11:24:05;46.99;44.19;54.36;;
61095;Laerm;20450;49.074;9.158;2024-02-26T11:26:34;46.49;44.43;55.21;;
61095;Laerm;20450;49.074;9.158;2024-02-26T11:29:05;49.39;44.58;64.74;;
61095;Laerm;20450;49.074;9.158;2024-02-26T11:31:37;49.11;45.17;73.00;;
61095;Laerm;20450;49.074;9.158;2024-02-26T11:34:07;48.46;45.01;61.52;;
61095;Laerm;20450;49.074;9.158;2024-02-26T11:36:37;47.00;44.94;59.42;;
61095;Laerm;20450;49.074;9.158;2024-02-26T11:39:06;47.61;44.66;67.20;;
61095;Laerm;20450;49.074;9.158;2024-02-26T11:41:33;50.28;45.04;74.23;;
61095;Laerm;20450;49.074;9.158;2024-02-26T11:44:02;49.61;45.14;61.89;;
61095;Laerm;20450;49.074;9.158;2024-02-26T11:46:31;50.63;45.60;66.72;;
61095;Laerm;20450;49.074;9.158;2024-02-26T11:49:01;50.23;45.20;63.64;;
61095;Laerm;20450;49.074;9.158;2024-02-26T11:51:33;49.86;45.39;62.95;;
61095;Laerm;20450;49.074;9.158;2024-02-26T11:54:01;49.78;45.69;59.65;;
61095;Laerm;20450;49.074;9.158;2024-02-26T11:56:28;48.44;44.97;58.87;;
61095;Laerm;20450;49.074;9.158;2024-02-26T11:59:04;46.42;44.54;50.26;;
61095;Laerm;20450;49.074;9.158;2024-02-26T12:01:44;46.82;44.76;53.73;;
61095;Laerm;20450;49.074;9.158;2024-02-26T12:04:17;47.11;44.58;54.15;;
61095;Laerm;20450;49.074;9.158;2024-02-26T12:06:53;47.06;44.69;53.44;;
61095;Laerm;20450;49.074;9.158;2024-02-26T12:09:32;47.27;45.17;52.72;;
61095;Laerm;20450;49.074;9.158;2024-02-26T12:12:02;47.03;44.76;54.08;;
61095;Laerm;20450;49.074;9.158;2024-02-26T12:14:29;46.74;44.47;53.93;;
61095;Laerm;20450;49.074;9.158;2024-02-26T12:16:56;46.96;44.23;51.95;;
61095;Laerm;20450;49.074;9.158;2024-02-26T12:19:27;46.88;44.62;61.19;;
61095;Laerm;20450;49.074;9.158;2024-02-26T12:21:54;46.77;44.43;50.56;;
61095;Laerm;20450;49.074;9.158;2024-02-26T12:24:21;46.83;44.62;49.88;;
61095;Laerm;20450;49.074;9.158;2024-02-26T12:26:49;46.86;44.62;53.53;;
61095;Laerm;20450;49.074;9.158;2024-02-26T12:29:16;46.92;44.83;52.44;;
61095;Laerm;20450;49.074;9.158;2024-02-26T12:31:43;47.27;45.11;51.67;;
61095;Laerm;20450;49.074;9.158;2024-02-26T12:34:10;46.81;45.04;51.56;;
61095;Laerm;20450;49.074;9.158;2024-02-26T12:36:39;46.69;44.62;50.93;;
61095;Laerm;20450;49.074;9.158;2024-02-26T12:39:09;46.68;44.76;51.58;;
61095;Laerm;20450;49.074;9.158;2024-02-26T12:41:38;47.34;45.14;65.03;;
61095;Laerm;20450;49.074;9.158;2024-02-26T12:44:05;46.76;44.65;53.83;;
61095;Laerm;20450;49.074;9.158;2024-02-26T12:46:32;47.23;45.17;52.97;;
61095;Laerm;20450;49.074;9.158;2024-02-26T12:48:59;47.38;44.90;53.19;;
61095;Laerm;20450;49.074;9.158;2024-02-26T12:51:27;47.14;45.01;54.72;;
61095;Laerm;20450;49.074;9.158;2024-02-26T12:53:57;46.95;44.79;54.47;;
61095;Laerm;20450;49.074;9.158;2024-02-26T12:56:27;47.24;44.83;53.84;;
61095;Laerm;20450;49.074;9.158;2024-02-26T12:58:56;47.00;45.01;59.54;;
61095;Laerm;20450;49.074;9.158;2024-02-26T13:01:31;46.83;44.87;54.95;;
61095;Laerm;20450;49.074;9.158;2024-02-26T13:03:59;46.73;44.90;53.16;;
61095;Laerm;20450;49.074;9.158;2024-02-26T13:06:26;46.49;44.58;50.06;;
61095;Laerm;20450;49.074;9.158;2024-02-26T13:08:58;46.48;44.58;53.08;;
61095;Laerm;20450;49.074;9.158;2024-02-26T13:11:25;46.64;44.94;61.73;;
61095;Laerm;20450;49.074;9.158;2024-02-26T13:13:52;46.72;44.65;55.14;;
61095;Laerm;20450;49.074;9.158;2024-02-26T13:16:23;46.71;44.90;52.36;;
61095;Laerm;20450;49.074;9.158;2024-02-26T13:18:51;46.45;44.35;54.45;;
61095;Laerm;20450;49.074;9.158;2024-02-26T13:21:18;46.62;44.58;50.07;;
61095;Laerm;20450;49.074;9.158;2024-02-26T13:23:51;46.29;44.43;49.78;;
61095;Laerm;20450;49.074;9.158;2024-02-26T13:26:22;47.01;44.65;52.13;;
61095;Laerm;20450;49.074;9.158;2024-02-26T13:32:33;46.47;44.62;55.55;;
61095;Laerm;20450;49.074;9.158;2024-02-26T13:35:08;46.46;44.51;49.50;;
61095;Laerm;20450;49.074;9.158;2024-02-26T13:37:36;47.10;45.01;51.99;;
61095;Laerm;20450;49.074;9.158;2024-02-26T13:40:09;46.84;44.83;52.76;;
61095;Laerm;20450;49.074;9.158;2024-02-26T13:42:39;46.43;44.47;51.20;;
61095;Laerm;20450;49.074;9.158;2024-02-26T13:45:07;46.29;44.31;53.52;;
61095;Laerm;20450;49.074;9.158;2024-02-26T13:47:35;46.35;43.68;53.52;;
61095;Laerm;20450;49.074;9.158;2024-02-26T13:50:04;46.49;44.47;50.98;;
61095;Laerm;20450;49.074;9.158;2024-02-26T13:52:32;46.33;44.47;50.89;;